Terminal Aerodrome Forecast
Issued by NWS

Home | Current Version | Previous Version | Text Only | Print | Product List | Glossary On
Versions: 1 2 3 4 5 6 7 8 9 10 11 12 13 14 15 16
000
FTUS43 KGRB 211100
TAFATW
TAF
KATW 211137Z 2112/2212 16007KT 4SM -FZDZ BR OVC012
     FM211700 17010KT 5SM -DZ BR OVC010
     FM212100 16012KT 4SM -SN BR OVC012
     FM220700 15010KT 4SM -FZDZSN BR BKN006 OVC012=

USA.gov is the U.S. government's official web portal to all federal, state and local government web resources and services.